Time;durP1;ratioP1;P1;durP2;ratioP2;P2;SDS_P1;SDS_P2;PMS_P1;PMS_P2;Temp;Humidity;BMP_temperature;BMP_pressure;BME280_temperature;BME280_humidity;BME280_pressure;Samples;Min_cycle;Max_cycle;Signal;HPM_P1;HPM_P2
2022/01/17 00:00:14;;;;;;;;;;;4.00;99.90;;;;;;4276858;33;20003;-86
2022/01/17 00:02:45;;;;;;;;;;;4.00;99.90;;;;;;4276660;33;20040;-86
2022/01/17 00:05:13;;;;;;;;;;;4.00;99.90;;;;;;4276907;33;20375;-86
2022/01/17 00:07:40;;;;;;;;;;;4.00;99.90;;;;;;4276872;33;19998;-87
2022/01/17 00:10:07;;;;;;;;;;;4.00;99.90;;;;;;4265497;33;20017;-86
2022/01/17 00:12:38;;;;;;;;;;;4.00;99.90;;;;;;4276774;33;20010;-87
2022/01/17 00:15:13;;;;;;;;;;;4.00;99.90;;;;;;4289751;33;20025;-86
2022/01/17 00:17:43;;;;;;;;;;;4.00;99.90;;;;;;4276676;33;20021;-87
2022/01/17 00:20:14;;;;;;;;;;;4.00;99.90;;;;;;4276703;33;20015;-87
2022/01/17 00:22:41;;;;;;;;;;;4.00;99.90;;;;;;4277413;33;20008;-86
2022/01/17 00:25:08;;;;;;;;;;;4.00;99.90;;;;;;4289383;33;20455;-86
2022/01/17 00:27:36;;;;;;;;;;;4.00;99.90;;;;;;4289600;33;20006;-87
2022/01/17 00:30:04;;;;;;;;;;;4.00;99.90;;;;;;4264926;33;20002;-87
2022/01/17 00:32:31;;;;;;;;;;;4.00;99.90;;;;;;4264745;33;19999;-87
2022/01/17 00:35:01;;;;;;;;;;;4.00;99.90;;;;;;4276760;33;20061;-87
2022/01/17 00:37:28;;;;;;;;;;;4.00;99.90;;;;;;4276400;33;20462;-87
2022/01/17 00:39:55;;;;;;;;;;;4.00;99.90;;;;;;4276094;33;20025;-87
2022/01/17 00:42:23;;;;;;;;;;;4.00;99.90;;;;;;4276208;33;20618;-86
2022/01/17 00:44:50;;;;;;;;;;;4.00;99.90;;;;;;4276856;33;20416;-86
2022/01/17 00:47:17;;;;;;;;;;;4.00;99.90;;;;;;4275950;33;20420;-86
2022/01/17 00:49:44;;;;;;;;;;;4.00;99.90;;;;;;4289664;33;20426;-87
2022/01/17 00:52:14;;;;;;;;;;;4.00;99.90;;;;;;4276484;33;20014;-86
2022/01/17 00:54:41;;;;;;;;;;;4.00;99.90;;;;;;4274937;33;44299;-86
2022/01/17 00:57:10;;;;;;;;;;;4.00;99.90;;;;;;4274949;33;39932;-87
2022/01/17 00:59:37;;;;;;;;;;;4.10;99.90;;;;;;4288444;33;38043;-87
2022/01/17 01:02:04;;;;;;;;;;;4.00;99.90;;;;;;4263251;33;38422;-86
2022/01/17 01:04:32;;;;;;;;;;;4.10;99.90;;;;;;4274770;33;44514;-87
2022/01/17 01:06:59;;;;;;;;;;;4.00;99.90;;;;;;4275464;33;37032;-86
2022/01/17 01:09:30;;;;;;;;;;;4.00;99.90;;;;;;4275227;33;44707;-87
2022/01/17 01:11:58;;;;;;;;;;;4.00;99.90;;;;;;4275874;33;22528;-86
2022/01/17 01:14:25;;;;;;;;;;;4.00;99.90;;;;;;4275329;33;38925;-87
2022/01/17 01:16:54;;;;;;;;;;;4.00;99.90;;;;;;4274900;33;36285;-86
2022/01/17 01:27:40;;;;;;;;;;;4.10;99.90;;;;;;4274601;33;38992;-87
2022/01/17 01:30:11;;;;;;;;;;;4.10;99.90;;;;;;4274809;33;43888;-86
2022/01/17 01:32:45;;;;;;;;;;;4.10;99.90;;;;;;4262817;33;42923;-87
2022/01/17 01:35:15;;;;;;;;;;;4.10;99.90;;;;;;4262952;33;39295;-87
2022/01/17 01:37:44;;;;;;;;;;;4.00;99.90;;;;;;4287901;33;25552;-87
2022/01/17 01:40:12;;;;;;;;;;;4.10;99.90;;;;;;4274555;33;38092;-87
2022/01/17 01:42:39;;;;;;;;;;;4.10;99.90;;;;;;4286733;33;41527;-86
2022/01/17 01:45:07;;;;;;;;;;;4.00;99.90;;;;;;4263026;33;41144;-86
2022/01/17 01:47:35;;;;;;;;;;;4.10;99.90;;;;;;4275165;33;38942;-87
2022/01/17 01:50:03;;;;;;;;;;;4.10;99.90;;;;;;4275234;33;33859;-87
2022/01/17 01:52:30;;;;;;;;;;;4.10;99.90;;;;;;4274561;33;32683;-87
2022/01/17 01:54:57;;;;;;;;;;;4.10;99.90;;;;;;4275295;33;20065;-87
2022/01/17 01:57:24;;;;;;;;;;;4.10;99.90;;;;;;4275198;33;26781;-87
2022/01/17 01:59:52;;;;;;;;;;;4.10;99.90;;;;;;4274606;33;29895;-87
2022/01/17 02:02:19;;;;;;;;;;;4.10;99.90;;;;;;4287496;33;35228;-87
2022/01/17 02:04:47;;;;;;;;;;;4.10;99.90;;;;;;4287539;33;38582;-87
2022/01/17 02:07:15;;;;;;;;;;;4.10;99.90;;;;;;4274289;33;42016;-87
2022/01/17 02:09:43;;;;;;;;;;;4.10;99.90;;;;;;4288267;33;20013;-87
2022/01/17 02:12:10;;;;;;;;;;;4.10;99.90;;;;;;4274910;33;33117;-87
2022/01/17 02:14:38;;;;;;;;;;;4.10;99.90;;;;;;4287140;33;41908;-87
2022/01/17 02:17:05;;;;;;;;;;;4.10;99.90;;;;;;4288348;33;20002;-87
2022/01/17 02:19:34;;;;;;;;;;;4.10;99.90;;;;;;4275373;33;20389;-87
2022/01/17 02:22:02;;;;;;;;;;;4.10;99.90;;;;;;4274483;33;38805;-86
2022/01/17 02:24:29;;;;;;;;;;;4.10;99.90;;;;;;4274736;33;34928;-87
2022/01/17 02:26:56;;;;;;;;;;;4.10;99.90;;;;;;4287384;33;38106;-86
2022/01/17 02:29:23;;;;;;;;;;;4.10;99.90;;;;;;4274409;33;42162;-87
2022/01/17 02:31:50;;;;;;;;;;;4.10;99.90;;;;;;4273980;33;40892;-86
2022/01/17 02:34:18;;;;;;;;;;;4.10;99.90;;;;;;4262380;33;43686;-85
2022/01/17 02:36:45;;;;;;;;;;;4.10;99.90;;;;;;4274455;33;28288;-87
2022/01/17 02:39:13;;;;;;;;;;;4.10;99.90;;;;;;4261930;33;45151;-86
2022/01/17 02:41:40;;;;;;;;;;;4.10;99.90;;;;;;4273971;33;42210;-86
2022/01/17 02:44:08;;;;;;;;;;;4.10;99.90;;;;;;4262099;33;41315;-86
2022/01/17 02:46:35;;;;;;;;;;;4.10;99.90;;;;;;4276579;33;37223;-87
2022/01/17 02:49:03;;;;;;;;;;;4.10;99.90;;;;;;4290733;33;30122;-86
2022/01/17 02:51:31;;;;;;;;;;;4.10;99.90;;;;;;4277251;33;37170;-87
2022/01/17 02:53:58;;;;;;;;;;;4.10;99.90;;;;;;4265432;33;37154;-86
2022/01/17 02:56:25;;;;;;;;;;;4.10;99.90;;;;;;4289728;33;39672;-86
2022/01/17 02:58:52;;;;;;;;;;;4.10;99.90;;;;;;4265174;33;34560;-86
2022/01/17 03:01:21;;;;;;;;;;;4.10;99.90;;;;;;4288602;33;37713;-87
2022/01/17 03:03:48;;;;;;;;;;;4.10;99.90;;;;;;4276867;33;40198;-86
2022/01/17 03:06:16;;;;;;;;;;;4.10;99.90;;;;;;4276901;33;39826;-87
2022/01/17 03:08:43;;;;;;;;;;;4.10;99.90;;;;;;4264805;33;35400;-87
2022/01/17 03:11:12;;;;;;;;;;;4.10;99.90;;;;;;4276933;33;42891;-86
2022/01/17 03:13:39;;;;;;;;;;;4.10;99.90;;;;;;4277071;33;38972;-86
2022/01/17 03:16:09;;;;;;;;;;;4.10;99.90;;;;;;4289938;33;38929;-86
2022/01/17 03:18:39;;;;;;;;;;;4.10;99.90;;;;;;4277176;33;38877;-86
2022/01/17 03:21:07;;;;;;;;;;;4.10;99.90;;;;;;4290409;33;20018;-86
2022/01/17 03:23:35;;;;;;;;;;;4.10;99.90;;;;;;4277579;33;20010;-86
2022/01/17 03:26:03;;;;;;;;;;;4.20;99.90;;;;;;4290247;33;20021;-87
2022/01/17 03:28:30;;;;;;;;;;;4.10;99.90;;;;;;4277364;33;20081;-86
2022/01/17 03:30:58;;;;;;;;;;;4.10;99.90;;;;;;4289962;33;20021;-86
2022/01/17 03:33:26;;;;;;;;;;;4.10;99.90;;;;;;4277876;33;20010;-86
2022/01/17 03:35:53;;;;;;;;;;;4.10;99.90;;;;;;4288751;33;20021;-87
2022/01/17 03:38:21;;;;;;;;;;;4.10;99.90;;;;;;4290497;33;20003;-86
2022/01/17 03:40:50;;;;;;;;;;;4.20;99.90;;;;;;4265108;33;20006;-86
2022/01/17 03:43:18;;;;;;;;;;;4.20;99.90;;;;;;4265355;33;20010;-87
2022/01/17 03:45:46;;;;;;;;;;;4.20;99.90;;;;;;4289983;33;20472;-87
2022/01/17 03:48:13;;;;;;;;;;;4.10;99.90;;;;;;4277373;33;20040;-86
2022/01/17 03:50:41;;;;;;;;;;;4.20;99.90;;;;;;4290391;33;20077;-86
2022/01/17 03:53:08;;;;;;;;;;;4.20;99.90;;;;;;4277195;33;20401;-86
2022/01/17 03:55:36;;;;;;;;;;;4.20;99.90;;;;;;4277226;33;20024;-87
2022/01/17 03:58:06;;;;;;;;;;;4.20;99.90;;;;;;4276543;33;20030;-86
2022/01/17 04:00:36;;;;;;;;;;;4.20;99.90;;;;;;4277450;33;20015;-87
2022/01/17 04:03:03;;;;;;;;;;;4.20;99.90;;;;;;4289857;33;20010;-86
2022/01/17 04:05:31;;;;;;;;;;;4.20;99.90;;;;;;4277115;33;20048;-86
2022/01/17 04:07:58;;;;;;;;;;;4.20;99.90;;;;;;4288637;33;20412;-86
2022/01/17 04:10:25;;;;;;;;;;;4.20;99.90;;;;;;4264823;33;20014;-87
2022/01/17 04:12:53;;;;;;;;;;;4.20;99.90;;;;;;4290400;33;20024;-86
2022/01/17 04:15:20;;;;;;;;;;;4.20;99.90;;;;;;4276563;33;20082;-86
2022/01/17 04:17:47;;;;;;;;;;;4.20;99.90;;;;;;4277101;33;20006;-86
2022/01/17 04:20:25;;;;;;;;;;;4.20;99.90;;;;;;4264937;33;20014;-87
2022/01/17 04:22:54;;;;;;;;;;;4.20;99.90;;;;;;4289809;33;20006;-86
2022/01/17 04:25:25;;;;;;;;;;;4.20;99.90;;;;;;4276604;33;20074;-87
2022/01/17 04:27:52;;;;;;;;;;;4.20;99.90;;;;;;4289874;33;19999;-87
2022/01/17 04:30:20;;;;;;;;;;;4.20;99.90;;;;;;4276198;33;20019;-86
2022/01/17 04:32:47;;;;;;;;;;;4.20;99.90;;;;;;4276182;33;20022;-86
2022/01/17 04:35:20;;;;;;;;;;;4.20;99.90;;;;;;4264852;33;20017;-86
2022/01/17 04:37:52;;;;;;;;;;;4.20;99.90;;;;;;4264690;33;20007;-87
2022/01/17 04:40:19;;;;;;;;;;;4.20;99.90;;;;;;4289397;33;20010;-87
2022/01/17 04:42:48;;;;;;;;;;;4.20;99.90;;;;;;4289785;33;20062;-86
2022/01/17 04:45:18;;;;;;;;;;;4.20;99.90;;;;;;4276787;33;20397;-86
2022/01/17 04:47:48;;;;;;;;;;;4.20;99.90;;;;;;4289401;33;20042;-87
2022/01/17 04:50:19;;;;;;;;;;;4.20;99.90;;;;;;4277064;33;20053;-87
2022/01/17 04:52:47;;;;;;;;;;;4.20;99.90;;;;;;4288315;33;20003;-86
2022/01/17 04:55:15;;;;;;;;;;;4.20;99.90;;;;;;4276847;33;20014;-87
2022/01/17 04:57:43;;;;;;;;;;;4.20;99.90;;;;;;4275816;33;20054;-87
2022/01/17 05:00:11;;;;;;;;;;;4.20;99.90;;;;;;4275361;33;44688;-87
2022/01/17 05:02:38;;;;;;;;;;;4.20;99.90;;;;;;4275065;33;38020;-86
2022/01/17 05:05:05;;;;;;;;;;;4.20;99.90;;;;;;4275064;33;35712;-87
2022/01/17 05:07:33;;;;;;;;;;;4.20;99.90;;;;;;4276269;33;20022;-87
2022/01/17 05:10:01;;;;;;;;;;;4.20;99.90;;;;;;4275316;33;30703;-87
2022/01/17 05:12:29;;;;;;;;;;;4.20;99.90;;;;;;4288566;33;39218;-87
2022/01/17 05:14:57;;;;;;;;;;;4.20;99.90;;;;;;4275568;33;40109;-87
2022/01/17 05:19:57;;;;;;;;;;;4.20;99.90;;;;;;4288865;33;20017;-87
2022/01/17 05:22:31;;;;;;;;;;;4.20;99.90;;;;;;4263440;33;40340;-87
2022/01/17 05:25:04;;;;;;;;;;;4.30;99.90;;;;;;4288228;33;41082;-87
2022/01/17 05:27:34;;;;;;;;;;;4.20;99.90;;;;;;4275196;33;42842;-86
2022/01/17 05:30:06;;;;;;;;;;;4.30;99.90;;;;;;4288119;33;27862;-87
2022/01/17 05:32:33;;;;;;;;;;;4.30;99.90;;;;;;4288120;33;29221;-86
2022/01/17 05:35:00;;;;;;;;;;;4.30;99.90;;;;;;4275466;33;27309;-86
2022/01/17 05:37:27;;;;;;;;;;;4.30;99.90;;;;;;4274641;33;36880;-86
2022/01/17 05:39:54;;;;;;;;;;;4.30;99.90;;;;;;4274623;33;36925;-87
2022/01/17 05:42:24;;;;;;;;;;;4.30;99.90;;;;;;4288076;33;39026;-87
2022/01/17 05:44:52;;;;;;;;;;;4.30;99.90;;;;;;4274664;33;34719;-86
2022/01/17 05:47:19;;;;;;;;;;;4.30;99.90;;;;;;4274140;33;45228;-87
2022/01/17 05:49:46;;;;;;;;;;;4.30;99.90;;;;;;4274851;33;43346;-87
2022/01/17 05:52:13;;;;;;;;;;;4.30;99.90;;;;;;4274731;33;33297;-86
2022/01/17 05:54:41;;;;;;;;;;;4.30;99.90;;;;;;4275737;33;20062;-87
2022/01/17 05:57:08;;;;;;;;;;;4.30;99.90;;;;;;4288745;33;20416;-87
2022/01/17 05:59:36;;;;;;;;;;;4.30;99.90;;;;;;4287467;33;41737;-87
2022/01/17 06:02:06;;;;;;;;;;;4.30;99.90;;;;;;4274917;33;32481;-86
2022/01/17 06:04:33;;;;;;;;;;;4.30;99.90;;;;;;4275571;33;20020;-87
2022/01/17 06:07:01;;;;;;;;;;;4.30;99.90;;;;;;4273943;33;44680;-87
2022/01/17 06:09:28;;;;;;;;;;;4.30;99.90;;;;;;4275700;33;20029;-86
2022/01/17 06:11:56;;;;;;;;;;;4.30;99.90;;;;;;4262424;33;45400;-87
2022/01/17 06:14:23;;;;;;;;;;;4.30;99.90;;;;;;4274629;33;43198;-87
2022/01/17 06:16:50;;;;;;;;;;;4.30;99.90;;;;;;4274500;33;43331;-85
2022/01/17 06:19:17;;;;;;;;;;;4.30;99.90;;;;;;4274161;33;37815;-86
2022/01/17 06:21:45;;;;;;;;;;;4.30;99.90;;;;;;4274356;33;33068;-86
2022/01/17 06:24:16;;;;;;;;;;;4.30;99.90;;;;;;4262716;33;43506;-86
2022/01/17 06:26:43;;;;;;;;;;;4.30;99.90;;;;;;4274074;33;42280;-87
2022/01/17 06:29:11;;;;;;;;;;;4.30;99.90;;;;;;4275036;33;19998;-87
2022/01/17 06:31:39;;;;;;;;;;;4.30;99.90;;;;;;4275213;33;20019;-86
2022/01/17 06:34:06;;;;;;;;;;;4.30;99.90;;;;;;4275099;33;20025;-86
2022/01/17 06:36:34;;;;;;;;;;;4.30;99.90;;;;;;4275340;33;20352;-87
2022/01/17 06:39:02;;;;;;;;;;;4.30;99.90;;;;;;4275097;33;20003;-86
2022/01/17 06:41:30;;;;;;;;;;;4.30;99.90;;;;;;4275436;33;20028;-86
2022/01/17 06:43:57;;;;;;;;;;;4.30;99.90;;;;;;4275007;33;19999;-87
2022/01/17 06:46:24;;;;;;;;;;;4.30;99.90;;;;;;4275305;33;20054;-86
2022/01/17 06:48:52;;;;;;;;;;;4.30;99.90;;;;;;4286788;33;20074;-87
2022/01/17 06:51:19;;;;;;;;;;;4.30;99.90;;;;;;4288289;33;20025;-87
2022/01/17 06:53:48;;;;;;;;;;;4.30;99.90;;;;;;4274384;33;20003;-86
2022/01/17 06:56:15;;;;;;;;;;;4.30;99.90;;;;;;4287756;33;20006;-87
2022/01/17 06:58:44;;;;;;;;;;;4.30;99.90;;;;;;4263338;33;20013;-86
2022/01/17 07:01:12;;;;;;;;;;;4.30;99.90;;;;;;4274940;33;20372;-87
2022/01/17 07:03:40;;;;;;;;;;;4.30;99.90;;;;;;4288123;33;20018;-89
2022/01/17 07:06:07;;;;;;;;;;;4.30;99.90;;;;;;4262963;33;20013;-89
2022/01/17 07:08:34;;;;;;;;;;;4.30;99.90;;;;;;4288208;33;20062;-89
2022/01/17 07:11:02;;;;;;;;;;;4.30;99.90;;;;;;4275266;33;20082;-89
2022/01/17 07:13:29;;;;;;;;;;;4.30;99.90;;;;;;4275275;33;20015;-89
2022/01/17 07:15:56;;;;;;;;;;;4.30;99.90;;;;;;4274521;33;20054;-89
2022/01/17 07:18:23;;;;;;;;;;;4.30;99.90;;;;;;4275501;33;20325;-89
2022/01/17 07:20:50;;;;;;;;;;;4.30;99.90;;;;;;4263190;33;20024;-89
2022/01/17 07:23:17;;;;;;;;;;;4.40;99.90;;;;;;4287674;33;20010;-89
2022/01/17 07:25:44;;;;;;;;;;;4.30;99.90;;;;;;4274674;33;20007;-89
2022/01/17 07:28:13;;;;;;;;;;;4.30;99.90;;;;;;4262871;33;20023;-89
2022/01/17 07:30:40;;;;;;;;;;;4.40;99.90;;;;;;4274757;33;19998;-89
2022/01/17 07:33:07;;;;;;;;;;;4.40;99.90;;;;;;4277140;33;20034;-89
2022/01/17 07:35:35;;;;;;;;;;;4.30;99.90;;;;;;4265894;33;20446;-90
2022/01/17 07:38:02;;;;;;;;;;;4.40;99.90;;;;;;4290349;33;20088;-89
2022/01/17 07:40:29;;;;;;;;;;;4.40;99.90;;;;;;4277695;33;20044;-89
2022/01/17 07:42:57;;;;;;;;;;;4.30;99.90;;;;;;4277118;33;20018;-89
2022/01/17 07:45:26;;;;;;;;;;;4.40;99.90;;;;;;4265763;33;20009;-89
2022/01/17 07:50:22;;;;;;;;;;;4.40;99.90;;;;;;4290111;33;20030;-90
2022/01/17 07:52:49;;;;;;;;;;;4.40;99.90;;;;;;4290131;33;20049;-89
2022/01/17 07:55:18;;;;;;;;;;;4.40;99.90;;;;;;4265170;33;20505;-87
2022/01/17 07:57:45;;;;;;;;;;;4.40;99.90;;;;;;4265594;33;20397;-87
2022/01/17 08:00:14;;;;;;;;;;;4.40;99.90;;;;;;4277449;33;20086;-87
2022/01/17 08:02:41;;;;;;;;;;;4.40;99.90;;;;;;4276593;33;21792;-87
2022/01/17 08:05:14;;;;;;;;;;;4.40;99.90;;;;;;4264605;33;21898;-87
2022/01/17 08:07:42;;;;;;;;;;;4.40;99.90;;;;;;4277156;33;20034;-86
2022/01/17 08:10:12;;;;;;;;;;;4.40;99.90;;;;;;4277524;33;20430;-87
2022/01/17 08:12:44;;;;;;;;;;;4.40;99.90;;;;;;4290429;33;20014;-87
2022/01/17 08:15:12;;;;;;;;;;;4.40;99.90;;;;;;4276803;33;20011;-87
2022/01/17 08:17:39;;;;;;;;;;;4.40;99.90;;;;;;4277293;33;20014;-87
2022/01/17 08:20:07;;;;;;;;;;;4.40;99.90;;;;;;4276980;33;20371;-87
2022/01/17 08:22:34;;;;;;;;;;;4.40;99.90;;;;;;4289264;33;20077;-87
2022/01/17 08:25:01;;;;;;;;;;;4.40;99.90;;;;;;4288253;33;20003;-87
2022/01/17 08:27:29;;;;;;;;;;;4.40;99.90;;;;;;4276999;33;20033;-87
2022/01/17 08:29:56;;;;;;;;;;;4.40;99.90;;;;;;4277067;33;20313;-87
2022/01/17 08:32:44;;;;;;;;;;;4.50;99.90;;;;;;4276902;33;20012;-86
2022/01/17 08:35:11;;;;;;;;;;;4.40;99.90;;;;;;4276653;33;20074;-87
2022/01/17 08:37:39;;;;;;;;;;;4.40;99.90;;;;;;4288877;33;26128;-87
2022/01/17 08:40:12;;;;;;;;;;;4.40;99.90;;;;;;4277772;33;20021;-87
2022/01/17 08:42:39;;;;;;;;;;;4.40;99.90;;;;;;4263594;33;20014;-87
2022/01/17 08:45:08;;;;;;;;;;;4.50;99.90;;;;;;4275328;33;36984;-87
2022/01/17 08:47:52;;;;;;;;;;;4.40;99.90;;;;;;4275826;33;28444;-87
2022/01/17 08:50:20;;;;;;;;;;;4.50;99.90;;;;;;4288132;33;43662;-87
2022/01/17 08:52:48;;;;;;;;;;;4.40;99.90;;;;;;4288218;33;40680;-87
2022/01/17 08:55:16;;;;;;;;;;;4.40;99.90;;;;;;4288792;33;37382;-87
2022/01/17 08:57:43;;;;;;;;;;;4.50;99.90;;;;;;4288329;33;44527;-87
2022/01/17 09:00:17;;;;;;;;;;;4.50;99.90;;;;;;4288467;33;43186;-87
2022/01/17 09:02:49;;;;;;;;;;;4.50;99.90;;;;;;4263916;33;36906;-87
2022/01/17 09:05:17;;;;;;;;;;;4.50;99.90;;;;;;4275862;33;30388;-87
2022/01/17 09:07:44;;;;;;;;;;;4.50;99.90;;;;;;4263260;33;38483;-87
2022/01/17 09:10:11;;;;;;;;;;;4.50;99.90;;;;;;4274992;33;38177;-87
2022/01/17 09:12:41;;;;;;;;;;;4.50;99.90;;;;;;4275723;33;39034;-86
2022/01/17 09:15:08;;;;;;;;;;;4.50;99.90;;;;;;4275219;33;33245;-87
2022/01/17 09:17:35;;;;;;;;;;;4.50;99.90;;;;;;4275034;33;38746;-87
2022/01/17 09:20:03;;;;;;;;;;;4.50;99.90;;;;;;4275468;33;39431;-87
2022/01/17 09:22:32;;;;;;;;;;;4.50;99.90;;;;;;4288086;33;39100;-87
2022/01/17 09:24:59;;;;;;;;;;;4.50;99.90;;;;;;4288456;33;29671;-86
2022/01/17 09:27:27;;;;;;;;;;;4.50;99.90;;;;;;4288162;33;24742;-87
2022/01/17 09:29:54;;;;;;;;;;;4.50;99.90;;;;;;4274816;33;36506;-87
2022/01/17 09:32:21;;;;;;;;;;;4.50;99.90;;;;;;4288061;33;32576;-87
2022/01/17 09:34:49;;;;;;;;;;;4.50;99.90;;;;;;4274788;33;41018;-87
2022/01/17 09:37:16;;;;;;;;;;;4.60;99.90;;;;;;4275029;33;38210;-87
2022/01/17 09:39:43;;;;;;;;;;;4.50;99.90;;;;;;4274567;33;39396;-87
2022/01/17 09:42:12;;;;;;;;;;;4.60;99.90;;;;;;4274773;33;36496;-88
2022/01/17 09:44:39;;;;;;;;;;;4.60;99.90;;;;;;4263313;33;25764;-87
2022/01/17 09:47:07;;;;;;;;;;;4.60;99.90;;;;;;4287438;33;43305;-87
2022/01/17 09:49:41;;;;;;;;;;;4.60;99.90;;;;;;4274974;33;30051;-87
2022/01/17 09:54:42;;;;;;;;;;;4.60;99.90;;;;;;4275308;33;19994;-87
2022/01/17 09:57:11;;;;;;;;;;;4.60;99.90;;;;;;4288517;33;20014;-86
2022/01/17 09:59:39;;;;;;;;;;;4.60;99.90;;;;;;4263931;33;20038;-87
2022/01/17 10:02:07;;;;;;;;;;;4.60;99.90;;;;;;4275304;33;20007;-87
2022/01/17 10:04:35;;;;;;;;;;;4.60;99.90;;;;;;4263948;33;20437;-87
2022/01/17 10:07:03;;;;;;;;;;;4.60;99.90;;;;;;4288238;33;20010;-87
2022/01/17 10:09:33;;;;;;;;;;;4.60;99.90;;;;;;4275804;33;20014;-87
2022/01/17 10:12:07;;;;;;;;;;;4.70;99.90;;;;;;4275186;33;20317;-87
2022/01/17 10:15:06;;;;;;;;;;;4.70;99.90;;;;;;4274709;33;20006;-87
2022/01/17 10:17:43;;;;;;;;;;;4.70;99.90;;;;;;4264356;33;20058;-87
2022/01/17 10:20:14;;;;;;;;;;;4.70;99.90;;;;;;4287184;33;20388;-87
2022/01/17 10:22:51;;;;;;;;;;;4.70;99.90;;;;;;4275529;33;20010;-87
2022/01/17 10:25:27;;;;;;;;;;;4.70;99.90;;;;;;4275163;33;19995;-87
2022/01/17 10:28:24;;;;;;;;;;;4.70;99.90;;;;;;4275028;33;20010;-86
2022/01/17 10:36:23;;;;;;;;;;;4.80;99.90;;;;;;4275372;33;20109;-87
2022/01/17 10:39:09;;;;;;;;;;;4.80;99.90;;;;;;4287750;33;20049;-87
2022/01/17 10:41:36;;;;;;;;;;;4.70;99.90;;;;;;4275101;33;20006;-87
2022/01/17 10:44:03;;;;;;;;;;;4.80;99.90;;;;;;4274981;33;20187;-87
2022/01/17 10:46:30;;;;;;;;;;;4.80;99.90;;;;;;4287610;33;20025;-86
2022/01/17 10:49:10;;;;;;;;;;;4.80;99.90;;;;;;4264698;33;20006;-87
2022/01/17 10:51:38;;;;;;;;;;;4.80;99.90;;;;;;4263295;33;20007;-87
2022/01/17 10:54:17;;;;;;;;;;;4.90;99.90;;;;;;4263756;33;20397;-87
2022/01/17 10:56:56;;;;;;;;;;;4.90;99.90;;;;;;4275413;33;20073;-86
2022/01/17 10:59:27;;;;;;;;;;;4.90;99.90;;;;;;4263217;33;20078;-87
2022/01/17 11:01:55;;;;;;;;;;;4.90;99.90;;;;;;4274354;33;20126;-87
2022/01/17 11:04:35;;;;;;;;;;;4.90;99.90;;;;;;4263170;33;21188;-87
2022/01/17 11:07:04;;;;;;;;;;;4.90;99.90;;;;;;4289206;33;20104;-87
2022/01/17 11:09:39;;;;;;;;;;;4.90;99.90;;;;;;4277282;33;20026;-87
2022/01/17 11:12:10;;;;;;;;;;;4.90;99.90;;;;;;4291172;33;20037;-87
2022/01/17 11:14:38;;;;;;;;;;;4.90;99.90;;;;;;4290709;33;20635;-87
2022/01/17 11:17:15;;;;;;;;;;;4.90;99.90;;;;;;4278070;33;20006;-86
2022/01/17 11:22:29;;;;;;;;;;;4.90;99.90;;;;;;4277580;33;19998;-87
2022/01/17 11:24:57;;;;;;;;;;;4.90;99.90;;;;;;4277718;33;20379;-87
2022/01/17 11:27:25;;;;;;;;;;;4.90;99.90;;;;;;4291046;33;20046;-87
2022/01/17 11:29:52;;;;;;;;;;;4.90;99.90;;;;;;4277458;33;20423;-87
2022/01/17 11:32:19;;;;;;;;;;;4.90;99.90;;;;;;4290556;33;20021;-87
2022/01/17 11:34:48;;;;;;;;;;;5.00;99.90;;;;;;4276928;33;20753;-87
2022/01/17 11:37:15;;;;;;;;;;;5.00;99.90;;;;;;4277395;33;20014;-87
2022/01/17 11:39:47;;;;;;;;;;;4.90;99.90;;;;;;4277782;33;20021;-87
2022/01/17 11:42:30;;;;;;;;;;;4.90;99.90;;;;;;4265472;33;20078;-86
2022/01/17 11:44:58;;;;;;;;;;;5.00;99.90;;;;;;4265574;33;20022;-86
2022/01/17 11:47:45;;;;;;;;;;;4.90;99.90;;;;;;4276142;33;35752;-87
2022/01/17 11:50:37;;;;;;;;;;;5.00;99.90;;;;;;4277533;33;20007;-87
2022/01/17 11:53:07;;;;;;;;;;;5.00;99.90;;;;;;4289969;33;26537;-87
2022/01/17 11:55:43;;;;;;;;;;;5.00;99.90;;;;;;4276388;33;43023;-86
2022/01/17 11:58:30;;;;;;;;;;;5.00;99.90;;;;;;4277548;33;20054;-87
2022/01/17 12:00:57;;;;;;;;;;;5.00;99.90;;;;;;4275984;33;42457;-87
2022/01/17 12:03:26;;;;;;;;;;;5.00;99.90;;;;;;4275803;33;42432;-87
2022/01/17 12:05:54;;;;;;;;;;;5.00;99.90;;;;;;4275729;33;45574;-87
2022/01/17 12:08:25;;;;;;;;;;;5.00;99.90;;;;;;4276664;33;30348;-87
2022/01/17 12:10:57;;;;;;;;;;;5.00;99.90;;;;;;4275840;33;43965;-87
2022/01/17 12:13:45;;;;;;;;;;;5.00;99.90;;;;;;4276662;33;35602;-87
2022/01/17 12:16:19;;;;;;;;;;;5.00;99.90;;;;;;4276004;33;45066;-87
2022/01/17 12:18:59;;;;;;;;;;;5.00;99.90;;;;;;4289007;33;43953;-87
2022/01/17 12:21:53;;;;;;;;;;;5.00;99.90;;;;;;4276512;33;20412;-87
2022/01/17 12:24:21;;;;;;;;;;;5.00;99.90;;;;;;4289035;33;31847;-87
2022/01/17 12:26:54;;;;;;;;;;;5.00;99.90;;;;;;4275582;33;41226;-87
2022/01/17 12:29:37;;;;;;;;;;;5.00;99.90;;;;;;4275875;33;40577;-87
2022/01/17 12:32:06;;;;;;;;;;;5.00;99.90;;;;;;4289264;33;38151;-87
2022/01/17 12:34:42;;;;;;;;;;;5.00;99.90;;;;;;4275935;33;33034;-88
2022/01/17 12:37:28;;;;;;;;;;;5.00;99.90;;;;;;4263872;33;38911;-88
2022/01/17 12:40:14;;;;;;;;;;;5.10;99.90;;;;;;4275432;33;43676;-87
2022/01/17 12:42:48;;;;;;;;;;;5.10;99.90;;;;;;4288722;33;45395;-86
2022/01/17 12:45:34;;;;;;;;;;;5.00;99.90;;;;;;4264409;33;33237;-87
2022/01/17 12:48:03;;;;;;;;;;;5.10;99.90;;;;;;4289813;33;20040;-87
2022/01/17 12:50:33;;;;;;;;;;;5.10;99.90;;;;;;4276599;33;20025;-87
2022/01/17 12:53:02;;;;;;;;;;;5.10;99.90;;;;;;4276698;33;20010;-87
2022/01/17 12:55:34;;;;;;;;;;;5.10;99.90;;;;;;4288901;33;20397;-87
2022/01/17 12:58:08;;;;;;;;;;;5.10;99.90;;;;;;4289742;33;20048;-87
2022/01/17 13:00:35;;;;;;;;;;;5.10;99.90;;;;;;4289903;33;20475;-87
2022/01/17 13:03:02;;;;;;;;;;;5.10;99.90;;;;;;4275984;33;20021;-88
2022/01/17 13:05:35;;;;;;;;;;;5.10;99.90;;;;;;4289564;33;20026;-87
2022/01/17 13:08:03;;;;;;;;;;;5.10;99.90;;;;;;4276472;33;20455;-87
2022/01/17 13:10:31;;;;;;;;;;;5.10;99.90;;;;;;4276735;33;20014;-87
2022/01/17 13:12:59;;;;;;;;;;;5.10;99.90;;;;;;4276416;33;20013;-87
2022/01/17 13:15:26;;;;;;;;;;;5.10;99.90;;;;;;4288924;33;20002;-87
2022/01/17 13:17:54;;;;;;;;;;;5.10;99.90;;;;;;4276203;33;20014;-88
2022/01/17 13:20:22;;;;;;;;;;;5.10;99.90;;;;;;4276327;33;20055;-87
2022/01/17 13:23:01;;;;;;;;;;;5.10;99.90;;;;;;4287888;33;19999;-87
2022/01/17 13:25:28;;;;;;;;;;;5.10;99.90;;;;;;4287714;33;20003;-87
2022/01/17 13:27:58;;;;;;;;;;;5.10;99.90;;;;;;4264236;33;20006;-87
2022/01/17 13:30:29;;;;;;;;;;;5.10;99.90;;;;;;4287873;33;20063;-87
2022/01/17 13:33:17;;;;;;;;;;;5.20;99.90;;;;;;4266189;33;20002;-87
2022/01/17 13:35:45;;;;;;;;;;;5.10;99.90;;;;;;4287429;33;21243;-87
2022/01/17 13:38:20;;;;;;;;;;;5.10;99.90;;;;;;4275376;33;20015;-87
2022/01/17 13:40:56;;;;;;;;;;;5.20;99.90;;;;;;4289061;33;20006;-88
2022/01/17 13:43:23;;;;;;;;;;;5.10;99.90;;;;;;4289059;33;20412;-87
2022/01/17 13:45:52;;;;;;;;;;;5.20;99.90;;;;;;4275343;33;20412;-87
2022/01/17 13:48:25;;;;;;;;;;;5.20;99.90;;;;;;4275280;33;21453;-87
2022/01/17 13:50:53;;;;;;;;;;;5.20;99.90;;;;;;4288542;33;20388;-86
2022/01/17 13:53:28;;;;;;;;;;;5.20;99.90;;;;;;4275697;33;20420;-87
2022/01/17 13:55:57;;;;;;;;;;;5.20;99.90;;;;;;4275991;33;20074;-87
2022/01/17 13:58:28;;;;;;;;;;;5.20;99.90;;;;;;4263752;33;20010;-87
2022/01/17 14:00:58;;;;;;;;;;;5.20;99.90;;;;;;4275682;33;20063;-87
2022/01/17 14:03:27;;;;;;;;;;;5.20;99.90;;;;;;4274979;33;26165;-87
2022/01/17 14:05:55;;;;;;;;;;;5.20;99.90;;;;;;4274335;33;43126;-87
2022/01/17 14:08:29;;;;;;;;;;;5.20;99.90;;;;;;4287670;33;43712;-87
2022/01/17 14:11:00;;;;;;;;;;;5.20;99.90;;;;;;4286257;33;43881;-87
2022/01/17 14:13:29;;;;;;;;;;;5.20;99.90;;;;;;4288223;33;23812;-87
2022/01/17 14:16:09;;;;;;;;;;;5.20;99.90;;;;;;4275282;33;20127;-87
2022/01/17 14:18:43;;;;;;;;;;;5.20;99.90;;;;;;4288455;33;20011;-87
2022/01/17 14:21:29;;;;;;;;;;;5.20;99.90;;;;;;4288538;33;20019;-87
2022/01/17 14:24:05;;;;;;;;;;;5.20;99.90;;;;;;4287166;33;19998;-86
2022/01/17 14:26:53;;;;;;;;;;;5.20;99.90;;;;;;4288644;33;20020;-87
2022/01/17 14:29:21;;;;;;;;;;;5.30;99.90;;;;;;4275326;33;20029;-87
2022/01/17 14:31:50;;;;;;;;;;;5.20;99.90;;;;;;4262885;33;20412;-87
2022/01/17 14:34:20;;;;;;;;;;;5.20;99.90;;;;;;4263602;33;20007;-87
2022/01/17 14:37:00;;;;;;;;;;;5.20;99.90;;;;;;4275317;33;20010;-87
2022/01/17 14:39:44;;;;;;;;;;;5.20;99.90;;;;;;4276920;33;20018;-87
2022/01/17 14:42:15;;;;;;;;;;;5.20;99.90;;;;;;4278293;33;20009;-87
2022/01/17 14:44:44;;;;;;;;;;;5.20;99.90;;;;;;4278571;33;20011;-87
2022/01/17 14:47:13;;;;;;;;;;;5.20;99.90;;;;;;4278164;33;20010;-87
2022/01/17 14:49:44;;;;;;;;;;;5.20;99.90;;;;;;4290512;33;20041;-87
2022/01/17 14:52:13;;;;;;;;;;;5.30;99.90;;;;;;4278472;33;20006;-87
2022/01/17 14:54:52;;;;;;;;;;;5.30;99.90;;;;;;4278941;33;20014;-87
2022/01/17 15:00:12;;;;;;;;;;;5.30;99.90;;;;;;4290972;33;20086;-87
2022/01/17 15:05:23;;;;;;;;;;;5.30;99.90;;;;;;4277598;33;21490;-87
2022/01/17 15:07:51;;;;;;;;;;;5.30;99.90;;;;;;4277609;33;20014;-87
2022/01/17 15:10:19;;;;;;;;;;;5.30;99.90;;;;;;4277637;33;20017;-87
2022/01/17 15:12:46;;;;;;;;;;;5.30;99.90;;;;;;4277335;33;20105;-87
2022/01/17 15:15:14;;;;;;;;;;;5.30;99.90;;;;;;4291217;33;20010;-87